메인 페이지
METAR-TAF:

METAR-TAF

공항 :

Barstow-Daggett Airport

Barstow, 캘리포니아, 미국

위도: 34-51-13N, 경도: 116-47-12W, 고도: 587m

현재 날씨관측

예보는 28분 전, 04:50시(UTC)에 발표되었습니다.
서남서12kt
온도 28°C
습도 25%
기압 1008 hPa
시정: 16.1km

METAR: KDAG 200450Z AUTO 25012KT 10SM 28/06 A2978 RMK AO2 PK WND 29026/0414 SLP056 T02780056 $

시각: 22:18 (05:18 UTC)

예보

예보는 5 시간 58분 전, 23:20시(UTC)에 발표되었습니다.
예보 대상 시간: 20일 00시부터 20일 24시까지 (UTC)
서북서11kt
시정: 10km
맑음
20일 0100시부터 (UTC)
서남서12kt, 순간 최대 풍속 22kt
시정: 10km
맑음
20일 0700시부터 (UTC)
서남서9kt
시정: 10km
맑음
20일 1700시부터 (UTC)
북서8kt
시정: 10km
맑음

TAF: KDAG 192320Z 2000/2024 30011KT P6SM SKC FM200100 25012G22KT P6SM SKC FM200700 25009KT P6SM SKC FM201700 31008KT P6SM SKC

4,000개 이상의 공항 관측 자료 및 예보 (METAR 및 TAF 보고).

지도상에서 검색 가능한 기상관측소가 노란 점과 빨간 점으로 표시되어 있습니다.

기상관측소 명을 보려면 표시 위로 마우스를 이동하세요.

날씨 관측과 예보를 보려면 클릭하세요.

지도 변경 : 확대하려면 엑스 표시가 있는 녹색 버튼, 축소하려면 빼기 표시가 있는 녹색 버튼, 다음 페이지의 지도를 보려면 녹색 화살표를 클릭하세요.


METAR-TAF: